sensor_id;sensor_type;location;lat;lon;timestamp;temperature;humidity
56332;DHT22;42237;53.340;6.812;2022-09-02T00:01:43;15.30;99.90
56332;DHT22;42237;53.340;6.812;2022-09-02T00:04:13;15.30;99.90
56332;DHT22;42237;53.340;6.812;2022-09-02T00:06:40;15.30;99.90
56332;DHT22;42237;53.340;6.812;2022-09-02T00:09:08;15.30;99.90
56332;DHT22;42237;53.340;6.812;2022-09-02T00:11:36;15.30;99.90
56332;DHT22;42237;53.340;6.812;2022-09-02T00:14:06;15.30;99.90
56332;DHT22;42237;53.340;6.812;2022-09-02T00:16:32;15.30;99.90
56332;DHT22;42237;53.340;6.812;2022-09-02T00:18:59;15.20;99.90
56332;DHT22;42237;53.340;6.812;2022-09-02T00:21:27;15.20;99.90
56332;DHT22;42237;53.340;6.812;2022-09-02T00:23:53;15.20;99.90
56332;DHT22;42237;53.340;6.812;2022-09-02T00:26:20;15.20;99.90
56332;DHT22;42237;53.340;6.812;2022-09-02T00:28:46;15.20;99.90
56332;DHT22;42237;53.340;6.812;2022-09-02T00:31:13;15.20;99.90
56332;DHT22;42237;53.340;6.812;2022-09-02T00:33:39;15.20;99.90
56332;DHT22;42237;53.340;6.812;2022-09-02T00:36:06;15.20;99.90
56332;DHT22;42237;53.340;6.812;2022-09-02T00:38:33;15.10;99.90
56332;DHT22;42237;53.340;6.812;2022-09-02T00:41:02;15.10;99.90
56332;DHT22;42237;53.340;6.812;2022-09-02T00:43:51;15.10;99.90
56332;DHT22;42237;53.340;6.812;2022-09-02T00:46:20;15.10;99.90
56332;DHT22;42237;53.340;6.812;2022-09-02T00:48:58;15.10;99.90
56332;DHT22;42237;53.340;6.812;2022-09-02T00:51:26;15.00;99.90
56332;DHT22;42237;53.340;6.812;2022-09-02T00:53:54;15.00;99.90
56332;DHT22;42237;53.340;6.812;2022-09-02T00:56:27;15.00;99.90
56332;DHT22;42237;53.340;6.812;2022-09-02T00:58:54;15.00;99.90
56332;DHT22;42237;53.340;6.812;2022-09-02T01:01:21;14.90;99.90
56332;DHT22;42237;53.340;6.812;2022-09-02T01:03:48;14.90;99.90
56332;DHT22;42237;53.340;6.812;2022-09-02T01:06:14;14.90;99.90
56332;DHT22;42237;53.340;6.812;2022-09-02T01:08:47;14.90;99.90
56332;DHT22;42237;53.340;6.812;2022-09-02T01:11:14;14.80;99.90
56332;DHT22;42237;53.340;6.812;2022-09-02T01:13:43;14.80;99.90
56332;DHT22;42237;53.340;6.812;2022-09-02T01:16:22;14.80;99.90
56332;DHT22;42237;53.340;6.812;2022-09-02T01:18:50;14.80;99.90
56332;DHT22;42237;53.340;6.812;2022-09-02T01:21:17;14.80;99.90
56332;DHT22;42237;53.340;6.812;2022-09-02T01:23:43;14.80;99.90
56332;DHT22;42237;53.340;6.812;2022-09-02T01:26:09;14.70;99.90
56332;DHT22;42237;53.340;6.812;2022-09-02T01:28:35;14.70;99.90
56332;DHT22;42237;53.340;6.812;2022-09-02T01:31:01;14.70;99.90
56332;DHT22;42237;53.340;6.812;2022-09-02T01:33:28;14.60;99.90
56332;DHT22;42237;53.340;6.812;2022-09-02T01:35:54;14.60;99.90
56332;DHT22;42237;53.340;6.812;2022-09-02T01:38:21;14.60;99.90
56332;DHT22;42237;53.340;6.812;2022-09-02T01:40:46;14.60;99.90
56332;DHT22;42237;53.340;6.812;2022-09-02T01:43:16;14.60;99.90
56332;DHT22;42237;53.340;6.812;2022-09-02T01:45:44;14.60;99.90
56332;DHT22;42237;53.340;6.812;2022-09-02T01:48:12;14.60;99.90
56332;DHT22;42237;53.340;6.812;2022-09-02T01:50:40;14.60;99.90
56332;DHT22;42237;53.340;6.812;2022-09-02T01:53:06;14.60;99.90
56332;DHT22;42237;53.340;6.812;2022-09-02T01:55:33;14.60;99.90
56332;DHT22;42237;53.340;6.812;2022-09-02T01:57:59;14.60;99.90
56332;DHT22;42237;53.340;6.812;2022-09-02T02:00:25;14.60;99.90
56332;DHT22;42237;53.340;6.812;2022-09-02T02:02:51;14.60;99.90
56332;DHT22;42237;53.340;6.812;2022-09-02T02:05:18;14.60;99.90
56332;DHT22;42237;53.340;6.812;2022-09-02T02:07:44;14.50;99.90
56332;DHT22;42237;53.340;6.812;2022-09-02T02:10:10;14.50;99.90
56332;DHT22;42237;53.340;6.812;2022-09-02T02:12:38;14.50;99.90
56332;DHT22;42237;53.340;6.812;2022-09-02T02:15:06;14.40;99.90
56332;DHT22;42237;53.340;6.812;2022-09-02T02:17:32;14.40;99.90
56332;DHT22;42237;53.340;6.812;2022-09-02T02:19:58;14.40;99.90
56332;DHT22;42237;53.340;6.812;2022-09-02T02:22:24;14.40;99.90
56332;DHT22;42237;53.340;6.812;2022-09-02T02:24:52;14.40;99.90
56332;DHT22;42237;53.340;6.812;2022-09-02T02:27:19;14.40;99.90
56332;DHT22;42237;53.340;6.812;2022-09-02T02:29:45;14.40;99.90
56332;DHT22;42237;53.340;6.812;2022-09-02T02:32:11;14.30;99.90
56332;DHT22;42237;53.340;6.812;2022-09-02T02:34:37;14.30;99.90
56332;DHT22;42237;53.340;6.812;2022-09-02T02:37:04;14.30;99.90
56332;DHT22;42237;53.340;6.812;2022-09-02T02:39:30;14.30;99.90
56332;DHT22;42237;53.340;6.812;2022-09-02T02:41:55;14.30;99.90
56332;DHT22;42237;53.340;6.812;2022-09-02T02:44:21;14.30;99.90
56332;DHT22;42237;53.340;6.812;2022-09-02T02:46:47;14.20;99.90
56332;DHT22;42237;53.340;6.812;2022-09-02T02:49:12;14.20;99.90
56332;DHT22;42237;53.340;6.812;2022-09-02T02:51:38;14.20;99.90
56332;DHT22;42237;53.340;6.812;2022-09-02T02:54:04;14.10;99.90
56332;DHT22;42237;53.340;6.812;2022-09-02T02:56:30;14.20;99.90
56332;DHT22;42237;53.340;6.812;2022-09-02T02:58:57;14.10;99.90
56332;DHT22;42237;53.340;6.812;2022-09-02T03:01:25;14.10;99.90
56332;DHT22;42237;53.340;6.812;2022-09-02T03:03:51;14.10;99.90
56332;DHT22;42237;53.340;6.812;2022-09-02T03:06:18;14.10;99.90
56332;DHT22;42237;53.340;6.812;2022-09-02T03:08:44;14.10;99.90
56332;DHT22;42237;53.340;6.812;2022-09-02T03:11:14;14.10;99.90
56332;DHT22;42237;53.340;6.812;2022-09-02T03:13:40;14.10;99.90
56332;DHT22;42237;53.340;6.812;2022-09-02T03:16:05;14.00;99.90
56332;DHT22;42237;53.340;6.812;2022-09-02T03:18:32;14.00;99.90
56332;DHT22;42237;53.340;6.812;2022-09-02T03:20:58;14.00;99.90
56332;DHT22;42237;53.340;6.812;2022-09-02T03:23:24;14.00;99.90
56332;DHT22;42237;53.340;6.812;2022-09-02T03:25:50;14.00;99.90
56332;DHT22;42237;53.340;6.812;2022-09-02T03:28:16;13.90;99.90
56332;DHT22;42237;53.340;6.812;2022-09-02T03:30:43;13.90;99.90
56332;DHT22;42237;53.340;6.812;2022-09-02T03:33:08;13.90;99.90
56332;DHT22;42237;53.340;6.812;2022-09-02T03:35:38;13.90;99.90
56332;DHT22;42237;53.340;6.812;2022-09-02T03:38:04;13.80;99.90
56332;DHT22;42237;53.340;6.812;2022-09-02T03:40:30;13.80;99.90
56332;DHT22;42237;53.340;6.812;2022-09-02T03:42:56;13.80;99.90
56332;DHT22;42237;53.340;6.812;2022-09-02T03:45:23;13.80;99.90
56332;DHT22;42237;53.340;6.812;2022-09-02T03:47:49;13.70;99.90
56332;DHT22;42237;53.340;6.812;2022-09-02T03:50:27;13.70;99.90
56332;DHT22;42237;53.340;6.812;2022-09-02T03:52:54;13.70;99.90
56332;DHT22;42237;53.340;6.812;2022-09-02T03:55:21;13.60;99.90
56332;DHT22;42237;53.340;6.812;2022-09-02T03:57:47;13.60;99.90
56332;DHT22;42237;53.340;6.812;2022-09-02T04:00:15;13.60;99.90
56332;DHT22;42237;53.340;6.812;2022-09-02T04:02:42;13.60;99.90
56332;DHT22;42237;53.340;6.812;2022-09-02T04:05:08;13.60;99.90
56332;DHT22;42237;53.340;6.812;2022-09-02T04:07:37;13.60;99.90
56332;DHT22;42237;53.340;6.812;2022-09-02T04:10:03;13.60;99.90
56332;DHT22;42237;53.340;6.812;2022-09-02T04:12:29;13.60;99.90
56332;DHT22;42237;53.340;6.812;2022-09-02T04:14:54;13.60;99.90
56332;DHT22;42237;53.340;6.812;2022-09-02T04:17:20;13.60;99.90
56332;DHT22;42237;53.340;6.812;2022-09-02T04:19:46;13.60;99.90
56332;DHT22;42237;53.340;6.812;2022-09-02T04:22:11;13.60;99.90
56332;DHT22;42237;53.340;6.812;2022-09-02T04:24:37;13.60;99.90
56332;DHT22;42237;53.340;6.812;2022-09-02T04:27:03;13.60;99.90
56332;DHT22;42237;53.340;6.812;2022-09-02T04:29:29;13.60;99.90
56332;DHT22;42237;53.340;6.812;2022-09-02T04:31:56;13.60;99.90
56332;DHT22;42237;53.340;6.812;2022-09-02T04:34:22;13.60;99.90
56332;DHT22;42237;53.340;6.812;2022-09-02T04:36:48;13.60;99.90
56332;DHT22;42237;53.340;6.812;2022-09-02T04:39:14;13.60;99.90
56332;DHT22;42237;53.340;6.812;2022-09-02T04:41:39;13.60;99.90
56332;DHT22;42237;53.340;6.812;2022-09-02T04:44:07;13.60;99.90
56332;DHT22;42237;53.340;6.812;2022-09-02T04:46:32;13.60;99.90
56332;DHT22;42237;53.340;6.812;2022-09-02T04:48:58;13.60;99.90
56332;DHT22;42237;53.340;6.812;2022-09-02T04:51:25;13.60;99.90
56332;DHT22;42237;53.340;6.812;2022-09-02T04:53:52;13.60;99.90
56332;DHT22;42237;53.340;6.812;2022-09-02T04:56:21;13.60;99.90
56332;DHT22;42237;53.340;6.812;2022-09-02T04:58:48;13.60;99.90
56332;DHT22;42237;53.340;6.812;2022-09-02T05:01:22;13.60;99.90
56332;DHT22;42237;53.340;6.812;2022-09-02T05:03:48;13.60;99.90
56332;DHT22;42237;53.340;6.812;2022-09-02T05:06:22;13.70;99.90
56332;DHT22;42237;53.340;6.812;2022-09-02T05:08:48;13.70;99.90
56332;DHT22;42237;53.340;6.812;2022-09-02T05:11:19;13.60;99.90
56332;DHT22;42237;53.340;6.812;2022-09-02T05:13:49;13.60;99.90
56332;DHT22;42237;53.340;6.812;2022-09-02T05:16:24;13.60;99.90
56332;DHT22;42237;53.340;6.812;2022-09-02T05:18:51;13.50;99.90
56332;DHT22;42237;53.340;6.812;2022-09-02T05:21:18;13.50;99.90
56332;DHT22;42237;53.340;6.812;2022-09-02T05:23:43;13.50;99.90
56332;DHT22;42237;53.340;6.812;2022-09-02T05:26:11;13.50;99.90
56332;DHT22;42237;53.340;6.812;2022-09-02T05:28:38;13.50;99.90
56332;DHT22;42237;53.340;6.812;2022-09-02T05:31:07;13.60;99.90
56332;DHT22;42237;53.340;6.812;2022-09-02T05:33:34;13.60;99.90
56332;DHT22;42237;53.340;6.812;2022-09-02T05:36:06;13.60;99.90
56332;DHT22;42237;53.340;6.812;2022-09-02T05:38:32;13.70;99.90
56332;DHT22;42237;53.340;6.812;2022-09-02T05:41:02;13.70;99.90
56332;DHT22;42237;53.340;6.812;2022-09-02T05:43:35;13.70;99.90
56332;DHT22;42237;53.340;6.812;2022-09-02T05:46:06;13.80;99.90
56332;DHT22;42237;53.340;6.812;2022-09-02T05:48:36;13.80;99.90
56332;DHT22;42237;53.340;6.812;2022-09-02T05:51:22;13.80;99.90
56332;DHT22;42237;53.340;6.812;2022-09-02T05:53:52;13.90;99.90
56332;DHT22;42237;53.340;6.812;2022-09-02T05:56:19;13.90;99.90
56332;DHT22;42237;53.340;6.812;2022-09-02T05:58:44;14.00;99.90
56332;DHT22;42237;53.340;6.812;2022-09-02T06:01:12;14.00;99.90
56332;DHT22;42237;53.340;6.812;2022-09-02T06:03:38;14.10;99.90
56332;DHT22;42237;53.340;6.812;2022-09-02T06:06:05;14.10;99.90
56332;DHT22;42237;53.340;6.812;2022-09-02T06:08:31;14.20;99.90
56332;DHT22;42237;53.340;6.812;2022-09-02T06:10:57;14.20;99.90
56332;DHT22;42237;53.340;6.812;2022-09-02T06:13:35;14.20;99.90
56332;DHT22;42237;53.340;6.812;2022-09-02T06:16:01;14.30;99.90
56332;DHT22;42237;53.340;6.812;2022-09-02T06:18:26;14.40;99.90
56332;DHT22;42237;53.340;6.812;2022-09-02T06:20:53;14.40;99.90
56332;DHT22;42237;53.340;6.812;2022-09-02T06:23:19;14.40;99.90
56332;DHT22;42237;53.340;6.812;2022-09-02T06:25:47;14.50;99.90
56332;DHT22;42237;53.340;6.812;2022-09-02T06:28:14;14.60;99.90
56332;DHT22;42237;53.340;6.812;2022-09-02T06:30:42;14.60;99.90
56332;DHT22;42237;53.340;6.812;2022-09-02T06:33:09;14.70;99.90
56332;DHT22;42237;53.340;6.812;2022-09-02T06:35:40;14.70;99.90
56332;DHT22;42237;53.340;6.812;2022-09-02T06:38:06;14.80;99.90
56332;DHT22;42237;53.340;6.812;2022-09-02T06:40:32;14.80;99.90
56332;DHT22;42237;53.340;6.812;2022-09-02T06:42:58;14.90;99.90
56332;DHT22;42237;53.340;6.812;2022-09-02T06:45:24;14.90;99.90
56332;DHT22;42237;53.340;6.812;2022-09-02T06:47:51;15.00;99.90
56332;DHT22;42237;53.340;6.812;2022-09-02T06:50:18;15.00;99.90
56332;DHT22;42237;53.340;6.812;2022-09-02T06:52:44;15.10;99.90
56332;DHT22;42237;53.340;6.812;2022-09-02T06:55:10;15.10;99.90
56332;DHT22;42237;53.340;6.812;2022-09-02T06:57:38;15.10;99.90
56332;DHT22;42237;53.340;6.812;2022-09-02T07:00:05;15.20;99.90
56332;DHT22;42237;53.340;6.812;2022-09-02T07:02:32;15.20;99.90
56332;DHT22;42237;53.340;6.812;2022-09-02T07:04:57;15.20;99.90
56332;DHT22;42237;53.340;6.812;2022-09-02T07:07:37;15.30;99.90
56332;DHT22;42237;53.340;6.812;2022-09-02T07:10:06;15.30;99.90
56332;DHT22;42237;53.340;6.812;2022-09-02T07:12:34;15.30;99.90
56332;DHT22;42237;53.340;6.812;2022-09-02T07:15:00;15.40;99.90
56332;DHT22;42237;53.340;6.812;2022-09-02T07:17:26;15.40;99.90
56332;DHT22;42237;53.340;6.812;2022-09-02T07:19:52;15.50;99.90
56332;DHT22;42237;53.340;6.812;2022-09-02T07:22:20;15.50;99.90
56332;DHT22;42237;53.340;6.812;2022-09-02T07:24:46;15.50;99.90
56332;DHT22;42237;53.340;6.812;2022-09-02T07:27:12;15.60;99.90
56332;DHT22;42237;53.340;6.812;2022-09-02T07:29:39;15.60;99.90
56332;DHT22;42237;53.340;6.812;2022-09-02T07:32:05;15.60;99.90
56332;DHT22;42237;53.340;6.812;2022-09-02T07:34:31;15.70;99.90
56332;DHT22;42237;53.340;6.812;2022-09-02T07:36:57;15.70;99.90
56332;DHT22;42237;53.340;6.812;2022-09-02T07:39:23;15.80;99.90
56332;DHT22;42237;53.340;6.812;2022-09-02T07:41:50;15.80;99.90
56332;DHT22;42237;53.340;6.812;2022-09-02T07:44:17;15.90;99.90
56332;DHT22;42237;53.340;6.812;2022-09-02T07:46:43;15.90;99.90
56332;DHT22;42237;53.340;6.812;2022-09-02T07:49:11;16.00;99.90
56332;DHT22;42237;53.340;6.812;2022-09-02T07:51:40;16.00;99.90
56332;DHT22;42237;53.340;6.812;2022-09-02T07:54:09;16.10;99.90
56332;DHT22;42237;53.340;6.812;2022-09-02T07:56:35;16.10;99.90
56332;DHT22;42237;53.340;6.812;2022-09-02T07:59:01;16.20;99.90
56332;DHT22;42237;53.340;6.812;2022-09-02T08:01:30;16.20;99.90
56332;DHT22;42237;53.340;6.812;2022-09-02T08:03:56;16.30;99.90
56332;DHT22;42237;53.340;6.812;2022-09-02T08:06:22;16.30;99.90
56332;DHT22;42237;53.340;6.812;2022-09-02T08:08:52;16.30;99.90
56332;DHT22;42237;53.340;6.812;2022-09-02T08:11:19;16.40;99.90
56332;DHT22;42237;53.340;6.812;2022-09-02T08:13:45;16.50;99.90
56332;DHT22;42237;53.340;6.812;2022-09-02T08:16:11;16.50;99.90
56332;DHT22;42237;53.340;6.812;2022-09-02T08:18:39;16.60;99.90
56332;DHT22;42237;53.340;6.812;2022-09-02T08:21:08;16.60;99.90
56332;DHT22;42237;53.340;6.812;2022-09-02T08:23:34;16.90;99.90
56332;DHT22;42237;53.340;6.812;2022-09-02T08:26:03;16.70;99.90
56332;DHT22;42237;53.340;6.812;2022-09-02T08:28:29;16.80;99.90
56332;DHT22;42237;53.340;6.812;2022-09-02T08:30:58;16.80;99.90
56332;DHT22;42237;53.340;6.812;2022-09-02T08:33:28;16.90;99.90
56332;DHT22;42237;53.340;6.812;2022-09-02T08:36:01;16.90;99.90
56332;DHT22;42237;53.340;6.812;2022-09-02T08:38:27;17.00;99.90
56332;DHT22;42237;53.340;6.812;2022-09-02T08:40:53;17.10;99.90
56332;DHT22;42237;53.340;6.812;2022-09-02T08:43:35;17.20;99.90
56332;DHT22;42237;53.340;6.812;2022-09-02T08:46:07;17.20;99.90
56332;DHT22;42237;53.340;6.812;2022-09-02T08:51:36;17.30;99.90
56332;DHT22;42237;53.340;6.812;2022-09-02T08:54:14;17.40;99.90
56332;DHT22;42237;53.340;6.812;2022-09-02T08:56:45;17.40;99.90
56332;DHT22;42237;53.340;6.812;2022-09-02T08:59:13;17.50;99.90
56332;DHT22;42237;53.340;6.812;2022-09-02T09:15:38;17.80;99.90
56332;DHT22;42237;53.340;6.812;2022-09-02T09:18:08;17.90;99.90
56332;DHT22;42237;53.340;6.812;2022-09-02T09:20:40;18.00;99.90
56332;DHT22;42237;53.340;6.812;2022-09-02T09:23:35;18.00;99.90
56332;DHT22;42237;53.340;6.812;2022-09-02T09:28:31;18.10;99.90
56332;DHT22;42237;53.340;6.812;2022-09-02T09:30:59;18.20;99.90
56332;DHT22;42237;53.340;6.812;2022-09-02T09:33:28;18.20;99.90
56332;DHT22;42237;53.340;6.812;2022-09-02T09:35:54;18.20;99.90
56332;DHT22;42237;53.340;6.812;2022-09-02T09:38:32;18.30;99.90
56332;DHT22;42237;53.340;6.812;2022-09-02T09:41:21;18.30;99.90
56332;DHT22;42237;53.340;6.812;2022-09-02T09:43:48;18.40;99.90
56332;DHT22;42237;53.340;6.812;2022-09-02T09:46:27;18.40;99.90
56332;DHT22;42237;53.340;6.812;2022-09-02T09:48:53;18.50;99.90
56332;DHT22;42237;53.340;6.812;2022-09-02T09:51:19;18.50;99.90
56332;DHT22;42237;53.340;6.812;2022-09-02T09:53:45;18.60;99.90
56332;DHT22;42237;53.340;6.812;2022-09-02T09:58:46;18.70;99.90
56332;DHT22;42237;53.340;6.812;2022-09-02T10:09:24;18.90;99.90
56332;DHT22;42237;53.340;6.812;2022-09-02T10:11:57;18.90;99.90
56332;DHT22;42237;53.340;6.812;2022-09-02T10:14:50;19.00;99.90
56332;DHT22;42237;53.340;6.812;2022-09-02T10:17:37;19.00;99.90
56332;DHT22;42237;53.340;6.812;2022-09-02T10:26:05;19.20;99.90
56332;DHT22;42237;53.340;6.812;2022-09-02T10:29:06;19.20;99.90
56332;DHT22;42237;53.340;6.812;2022-09-02T10:34:32;19.40;99.90
56332;DHT22;42237;53.340;6.812;2022-09-02T10:42:26;19.50;99.90
56332;DHT22;42237;53.340;6.812;2022-09-02T10:51:09;19.70;99.90
56332;DHT22;42237;53.340;6.812;2022-09-02T10:56:34;19.80;99.90
56332;DHT22;42237;53.340;6.812;2022-09-02T10:59:10;19.90;99.90
56332;DHT22;42237;53.340;6.812;2022-09-02T11:01:55;19.90;99.90
56332;DHT22;42237;53.340;6.812;2022-09-02T11:04:37;20.00;99.90
56332;DHT22;42237;53.340;6.812;2022-09-02T11:07:10;20.00;99.90
56332;DHT22;42237;53.340;6.812;2022-09-02T11:10:02;20.10;99.90
56332;DHT22;42237;53.340;6.812;2022-09-02T11:12:33;20.10;99.90
56332;DHT22;42237;53.340;6.812;2022-09-02T11:15:17;20.20;99.90
56332;DHT22;42237;53.340;6.812;2022-09-02T11:20:40;20.20;99.90
56332;DHT22;42237;53.340;6.812;2022-09-02T11:26:23;20.40;99.90
56332;DHT22;42237;53.340;6.812;2022-09-02T11:29:00;20.40;99.90
56332;DHT22;42237;53.340;6.812;2022-09-02T11:36:42;20.50;99.90
56332;DHT22;42237;53.340;6.812;2022-09-02T11:39:17;20.50;99.90
56332;DHT22;42237;53.340;6.812;2022-09-02T11:42:36;20.60;99.90
56332;DHT22;42237;53.340;6.812;2022-09-02T11:49:55;20.70;99.90
56332;DHT22;42237;53.340;6.812;2022-09-02T11:55:25;20.80;99.90
56332;DHT22;42237;53.340;6.812;2022-09-02T11:57:53;20.90;99.90
56332;DHT22;42237;53.340;6.812;2022-09-02T12:02:59;21.00;99.90
56332;DHT22;42237;53.340;6.812;2022-09-02T12:13:41;21.10;99.90
56332;DHT22;42237;53.340;6.812;2022-09-02T12:21:20;21.30;99.90
56332;DHT22;42237;53.340;6.812;2022-09-02T12:31:44;21.50;99.90
56332;DHT22;42237;53.340;6.812;2022-09-02T12:36:58;21.50;99.20
56332;DHT22;42237;53.340;6.812;2022-09-02T12:42:18;21.60;99.40
56332;DHT22;42237;53.340;6.812;2022-09-02T12:47:46;21.70;98.50
56332;DHT22;42237;53.340;6.812;2022-09-02T12:50:32;21.80;98.10
56332;DHT22;42237;53.340;6.812;2022-09-02T12:56:03;22.00;98.10
56332;DHT22;42237;53.340;6.812;2022-09-02T12:58:37;22.00;98.30
56332;DHT22;42237;53.340;6.812;2022-09-02T13:01:13;22.00;97.90
56332;DHT22;42237;53.340;6.812;2022-09-02T13:04:06;22.10;97.70
56332;DHT22;42237;53.340;6.812;2022-09-02T13:31:37;22.60;95.60
56332;DHT22;42237;53.340;6.812;2022-09-02T13:34:12;22.60;95.50
56332;DHT22;42237;53.340;6.812;2022-09-02T13:36:42;22.70;94.90
56332;DHT22;42237;53.340;6.812;2022-09-02T13:39:16;22.60;94.70
56332;DHT22;42237;53.340;6.812;2022-09-02T13:41:42;22.70;95.30
56332;DHT22;42237;53.340;6.812;2022-09-02T13:44:27;22.80;95.20
56332;DHT22;42237;53.340;6.812;2022-09-02T13:47:17;22.80;94.00
56332;DHT22;42237;53.340;6.812;2022-09-02T13:49:48;22.90;93.50
56332;DHT22;42237;53.340;6.812;2022-09-02T13:52:20;22.90;94.00
56332;DHT22;42237;53.340;6.812;2022-09-02T13:54:52;23.00;94.10
56332;DHT22;42237;53.340;6.812;2022-09-02T13:57:28;23.00;93.20
56332;DHT22;42237;53.340;6.812;2022-09-02T13:59:55;23.10;92.80
56332;DHT22;42237;53.340;6.812;2022-09-02T14:02:27;23.00;92.30
56332;DHT22;42237;53.340;6.812;2022-09-02T14:07:48;23.10;91.90
56332;DHT22;42237;53.340;6.812;2022-09-02T14:10:17;23.20;92.30
56332;DHT22;42237;53.340;6.812;2022-09-02T14:12:44;23.20;92.20
56332;DHT22;42237;53.340;6.812;2022-09-02T14:15:13;23.20;92.00
56332;DHT22;42237;53.340;6.812;2022-09-02T14:17:39;23.30;91.60
56332;DHT22;42237;53.340;6.812;2022-09-02T14:20:17;23.30;91.30
56332;DHT22;42237;53.340;6.812;2022-09-02T14:22:53;23.30;90.30
56332;DHT22;42237;53.340;6.812;2022-09-02T14:25:24;23.30;90.40
56332;DHT22;42237;53.340;6.812;2022-09-02T14:27:53;23.30;90.40
56332;DHT22;42237;53.340;6.812;2022-09-02T14:30:39;23.30;90.20
56332;DHT22;42237;53.340;6.812;2022-09-02T14:33:35;23.40;89.80
56332;DHT22;42237;53.340;6.812;2022-09-02T14:36:06;23.40;89.90
56332;DHT22;42237;53.340;6.812;2022-09-02T14:39:08;23.50;89.80
56332;DHT22;42237;53.340;6.812;2022-09-02T14:41:34;23.50;88.40
56332;DHT22;42237;53.340;6.812;2022-09-02T14:44:11;23.50;89.30
56332;DHT22;42237;53.340;6.812;2022-09-02T14:47:04;23.60;86.80
56332;DHT22;42237;53.340;6.812;2022-09-02T14:51:58;23.60;86.40
56332;DHT22;42237;53.340;6.812;2022-09-02T14:54:45;23.60;86.00
56332;DHT22;42237;53.340;6.812;2022-09-02T14:57:30;23.70;85.60
56332;DHT22;42237;53.340;6.812;2022-09-02T15:00:10;23.70;84.70
56332;DHT22;42237;53.340;6.812;2022-09-02T15:02:41;23.70;84.90
56332;DHT22;42237;53.340;6.812;2022-09-02T15:05:10;23.70;85.70
56332;DHT22;42237;53.340;6.812;2022-09-02T15:07:41;23.70;86.10
56332;DHT22;42237;53.340;6.812;2022-09-02T15:10:10;23.70;85.70
56332;DHT22;42237;53.340;6.812;2022-09-02T15:12:43;23.70;85.40
56332;DHT22;42237;53.340;6.812;2022-09-02T15:15:10;23.70;84.30
56332;DHT22;42237;53.340;6.812;2022-09-02T15:17:36;23.70;83.40
56332;DHT22;42237;53.340;6.812;2022-09-02T15:20:02;23.70;83.00
56332;DHT22;42237;53.340;6.812;2022-09-02T15:22:31;23.80;83.60
56332;DHT22;42237;53.340;6.812;2022-09-02T15:24:56;23.90;83.70
56332;DHT22;42237;53.340;6.812;2022-09-02T15:27:22;24.00;83.90
56332;DHT22;42237;53.340;6.812;2022-09-02T15:29:53;24.00;84.10
56332;DHT22;42237;53.340;6.812;2022-09-02T15:32:26;24.00;82.40
56332;DHT22;42237;53.340;6.812;2022-09-02T15:34:52;24.00;82.50
56332;DHT22;42237;53.340;6.812;2022-09-02T15:37:18;24.00;83.20
56332;DHT22;42237;53.340;6.812;2022-09-02T15:39:44;24.10;82.90
56332;DHT22;42237;53.340;6.812;2022-09-02T15:42:10;24.00;82.40
56332;DHT22;42237;53.340;6.812;2022-09-02T15:44:35;24.10;82.90
56332;DHT22;42237;53.340;6.812;2022-09-02T15:47:01;24.10;82.20
56332;DHT22;42237;53.340;6.812;2022-09-02T15:49:27;24.10;82.20
56332;DHT22;42237;53.340;6.812;2022-09-02T15:51:53;24.20;81.10
56332;DHT22;42237;53.340;6.812;2022-09-02T15:54:23;24.40;81.80
56332;DHT22;42237;53.340;6.812;2022-09-02T15:56:57;24.50;81.60
56332;DHT22;42237;53.340;6.812;2022-09-02T15:59:23;24.60;82.30
56332;DHT22;42237;53.340;6.812;2022-09-02T16:01:54;24.60;82.60
56332;DHT22;42237;53.340;6.812;2022-09-02T16:04:23;24.40;82.10
56332;DHT22;42237;53.340;6.812;2022-09-02T16:06:51;24.30;82.70
56332;DHT22;42237;53.340;6.812;2022-09-02T16:09:18;24.10;82.80
56332;DHT22;42237;53.340;6.812;2022-09-02T16:11:48;23.90;82.80
56332;DHT22;42237;53.340;6.812;2022-09-02T16:14:17;23.80;83.00
56332;DHT22;42237;53.340;6.812;2022-09-02T16:16:44;23.60;83.20
56332;DHT22;42237;53.340;6.812;2022-09-02T16:19:10;23.40;83.70
56332;DHT22;42237;53.340;6.812;2022-09-02T16:21:36;23.30;83.60
56332;DHT22;42237;53.340;6.812;2022-09-02T16:24:11;23.10;83.50
56332;DHT22;42237;53.340;6.812;2022-09-02T16:26:39;23.10;83.60
56332;DHT22;42237;53.340;6.812;2022-09-02T16:29:09;23.00;84.10
56332;DHT22;42237;53.340;6.812;2022-09-02T16:31:41;22.90;85.10
56332;DHT22;42237;53.340;6.812;2022-09-02T16:34:15;22.90;85.40
56332;DHT22;42237;53.340;6.812;2022-09-02T16:36:50;22.90;85.90
56332;DHT22;42237;53.340;6.812;2022-09-02T16:39:16;22.80;85.80
56332;DHT22;42237;53.340;6.812;2022-09-02T16:41:50;22.90;86.10
56332;DHT22;42237;53.340;6.812;2022-09-02T16:44:35;22.90;86.30
56332;DHT22;42237;53.340;6.812;2022-09-02T16:47:21;22.90;85.70
56332;DHT22;42237;53.340;6.812;2022-09-02T16:49:58;23.00;86.50
56332;DHT22;42237;53.340;6.812;2022-09-02T16:52:34;22.90;86.40
56332;DHT22;42237;53.340;6.812;2022-09-02T16:55:12;22.80;86.40
56332;DHT22;42237;53.340;6.812;2022-09-02T16:58:15;22.80;87.20
56332;DHT22;42237;53.340;6.812;2022-09-02T17:00:50;22.60;86.90
56332;DHT22;42237;53.340;6.812;2022-09-02T17:03:21;22.50;86.10
56332;DHT22;42237;53.340;6.812;2022-09-02T17:06:00;22.40;85.60
56332;DHT22;42237;53.340;6.812;2022-09-02T17:08:28;22.30;87.10
56332;DHT22;42237;53.340;6.812;2022-09-02T17:11:33;22.20;87.80
56332;DHT22;42237;53.340;6.812;2022-09-02T17:16:51;21.90;88.90
56332;DHT22;42237;53.340;6.812;2022-09-02T17:19:27;21.90;88.80
56332;DHT22;42237;53.340;6.812;2022-09-02T17:21:55;21.80;89.40
56332;DHT22;42237;53.340;6.812;2022-09-02T17:24:26;21.80;89.50
56332;DHT22;42237;53.340;6.812;2022-09-02T17:27:09;21.70;89.30
56332;DHT22;42237;53.340;6.812;2022-09-02T17:29:35;21.60;90.10
56332;DHT22;42237;53.340;6.812;2022-09-02T17:32:09;21.80;90.40
56332;DHT22;42237;53.340;6.812;2022-09-02T17:35:17;21.40;90.50
56332;DHT22;42237;53.340;6.812;2022-09-02T17:37:56;21.30;90.90
56332;DHT22;42237;53.340;6.812;2022-09-02T17:40:32;21.30;91.10
56332;DHT22;42237;53.340;6.812;2022-09-02T17:43:22;21.10;91.40
56332;DHT22;42237;53.340;6.812;2022-09-02T17:46:05;21.00;91.70
56332;DHT22;42237;53.340;6.812;2022-09-02T17:48:44;20.90;92.00
56332;DHT22;42237;53.340;6.812;2022-09-02T17:51:21;20.80;92.30
56332;DHT22;42237;53.340;6.812;2022-09-02T17:53:54;20.70;92.50
56332;DHT22;42237;53.340;6.812;2022-09-02T17:59:19;20.60;92.60
56332;DHT22;42237;53.340;6.812;2022-09-02T18:02:10;20.40;92.90
56332;DHT22;42237;53.340;6.812;2022-09-02T18:10:50;20.00;92.90
56332;DHT22;42237;53.340;6.812;2022-09-02T18:13:49;19.90;93.60
56332;DHT22;42237;53.340;6.812;2022-09-02T18:28:18;19.30;94.30
56332;DHT22;42237;53.340;6.812;2022-09-02T18:36:18;19.00;95.20
56332;DHT22;42237;53.340;6.812;2022-09-02T18:41:27;18.80;95.40